sensor_id;sensor_type;location;lat;lon;timestamp;pressure;altitude;pressure_sealevel;temperature;humidity
36748;BME280;22716;51.556;5.080;2024-03-02T00:01:17;99192.00;;;7.76;100.00
36748;BME280;22716;51.556;5.080;2024-03-02T00:03:45;99181.63;;;7.74;100.00
36748;BME280;22716;51.556;5.080;2024-03-02T00:06:14;99182.72;;;7.66;100.00
36748;BME280;22716;51.556;5.080;2024-03-02T00:08:43;99182.81;;;7.61;100.00
36748;BME280;22716;51.556;5.080;2024-03-02T00:11:12;99187.25;;;7.58;100.00
36748;BME280;22716;51.556;5.080;2024-03-02T00:13:48;99185.63;;;7.54;100.00
36748;BME280;22716;51.556;5.080;2024-03-02T00:16:16;99191.00;;;7.46;100.00
36748;BME280;22716;51.556;5.080;2024-03-02T00:18:45;99187.53;;;7.46;100.00
36748;BME280;22716;51.556;5.080;2024-03-02T00:21:14;99194.47;;;7.48;100.00
36748;BME280;22716;51.556;5.080;2024-03-02T00:23:48;99190.13;;;7.47;100.00
36748;BME280;22716;51.556;5.080;2024-03-02T00:26:17;99185.84;;;7.45;100.00
36748;BME280;22716;51.556;5.080;2024-03-02T00:28:48;99190.13;;;7.47;100.00
36748;BME280;22716;51.556;5.080;2024-03-02T00:31:19;99191.06;;;7.45;100.00
36748;BME280;22716;51.556;5.080;2024-03-02T00:33:49;99188.75;;;7.32;100.00
36748;BME280;22716;51.556;5.080;2024-03-02T00:36:22;99196.44;;;7.37;100.00
36748;BME280;22716;51.556;5.080;2024-03-02T00:38:53;99200.75;;;7.40;100.00
36748;BME280;22716;51.556;5.080;2024-03-02T00:41:24;99183.25;;;7.43;100.00
36748;BME280;22716;51.556;5.080;2024-03-02T00:44:00;99189.41;;;7.42;100.00
36748;BME280;22716;51.556;5.080;2024-03-02T00:46:33;99184.25;;;7.39;100.00
36748;BME280;22716;51.556;5.080;2024-03-02T00:49:03;99186.00;;;7.39;100.00
36748;BME280;22716;51.556;5.080;2024-03-02T00:51:34;99178.13;;;7.40;100.00
36748;BME280;22716;51.556;5.080;2024-03-02T00:54:04;99186.84;;;7.39;100.00
36748;BME280;22716;51.556;5.080;2024-03-02T00:56:33;99189.47;;;7.38;100.00
36748;BME280;22716;51.556;5.080;2024-03-02T00:59:05;99184.28;;;7.38;100.00
36748;BME280;22716;51.556;5.080;2024-03-02T01:01:34;99190.34;;;7.38;100.00
36748;BME280;22716;51.556;5.080;2024-03-02T01:04:03;99179.00;;;7.41;100.00
36748;BME280;22716;51.556;5.080;2024-03-02T01:06:32;99173.91;;;7.36;100.00
36748;BME280;22716;51.556;5.080;2024-03-02T01:09:00;99199.03;;;7.37;100.00
36748;BME280;22716;51.556;5.080;2024-03-02T01:11:29;99209.44;;;7.39;100.00
36748;BME280;22716;51.556;5.080;2024-03-02T01:13:58;99204.31;;;7.34;100.00
36748;BME280;22716;51.556;5.080;2024-03-02T01:16:29;99212.25;;;7.29;100.00
36748;BME280;22716;51.556;5.080;2024-03-02T01:18:58;99218.47;;;7.24;100.00
36748;BME280;22716;51.556;5.080;2024-03-02T01:21:26;99204.63;;;7.22;100.00
36748;BME280;22716;51.556;5.080;2024-03-02T01:23:55;99215.13;;;7.19;100.00
36748;BME280;22716;51.556;5.080;2024-03-02T01:26:23;99221.16;;;7.21;100.00
36748;BME280;22716;51.556;5.080;2024-03-02T01:28:52;99203.91;;;7.15;100.00
36748;BME280;22716;51.556;5.080;2024-03-02T01:31:20;99210.72;;;7.21;100.00
36748;BME280;22716;51.556;5.080;2024-03-02T01:33:52;99207.31;;;7.17;100.00
36748;BME280;22716;51.556;5.080;2024-03-02T01:36:20;99203.19;;;7.09;100.00
36748;BME280;22716;51.556;5.080;2024-03-02T01:38:49;99224.75;;;7.15;100.00
36748;BME280;22716;51.556;5.080;2024-03-02T01:41:18;99236.03;;;7.16;100.00
36748;BME280;22716;51.556;5.080;2024-03-02T01:43:46;99226.50;;;7.13;100.00
36748;BME280;22716;51.556;5.080;2024-03-02T01:46:15;99226.66;;;7.07;100.00
36748;BME280;22716;51.556;5.080;2024-03-02T01:48:43;99230.16;;;7.06;100.00
36748;BME280;22716;51.556;5.080;2024-03-02T01:51:16;99227.41;;;7.12;100.00
36748;BME280;22716;51.556;5.080;2024-03-02T01:53:44;99231.88;;;7.07;100.00
36748;BME280;22716;51.556;5.080;2024-03-02T01:56:13;99221.41;;;7.09;100.00
36748;BME280;22716;51.556;5.080;2024-03-02T01:58:41;99213.59;;;7.10;100.00
36748;BME280;22716;51.556;5.080;2024-03-02T02:01:10;99228.22;;;7.16;100.00
36748;BME280;22716;51.556;5.080;2024-03-02T02:03:39;99229.94;;;7.15;100.00
36748;BME280;22716;51.556;5.080;2024-03-02T02:06:08;99236.03;;;7.14;100.00
36748;BME280;22716;51.556;5.080;2024-03-02T02:08:39;99229.09;;;7.15;100.00
36748;BME280;22716;51.556;5.080;2024-03-02T02:11:08;99221.47;;;7.06;100.00
36748;BME280;22716;51.556;5.080;2024-03-02T02:13:36;99213.66;;;7.07;100.00
36748;BME280;22716;51.556;5.080;2024-03-02T02:16:06;99216.25;;;7.07;100.00
36748;BME280;22716;51.556;5.080;2024-03-02T02:18:35;99211.19;;;7.01;100.00
36748;BME280;22716;51.556;5.080;2024-03-02T02:21:04;99225.81;;;7.07;100.00
36748;BME280;22716;51.556;5.080;2024-03-02T02:23:36;99217.34;;;6.96;100.00
36748;BME280;22716;51.556;5.080;2024-03-02T02:26:04;99219.88;;;7.00;100.00
36748;BME280;22716;51.556;5.080;2024-03-02T02:28:33;99217.34;;;6.97;100.00
36748;BME280;22716;51.556;5.080;2024-03-02T02:31:01;99216.41;;;7.00;100.00
36748;BME280;22716;51.556;5.080;2024-03-02T02:33:30;99216.47;;;6.97;100.00
36748;BME280;22716;51.556;5.080;2024-03-02T02:35:58;99220.78;;;6.98;100.00
36748;BME280;22716;51.556;5.080;2024-03-02T02:38:27;99219.13;;;6.95;100.00
36748;BME280;22716;51.556;5.080;2024-03-02T02:40:58;99220.88;;;6.93;100.00
36748;BME280;22716;51.556;5.080;2024-03-02T02:43:27;99213.06;;;6.93;100.00
36748;BME280;22716;51.556;5.080;2024-03-02T02:45:55;99205.19;;;6.96;100.00
36748;BME280;22716;51.556;5.080;2024-03-02T02:48:24;99198.22;;;6.98;100.00
36748;BME280;22716;51.556;5.080;2024-03-02T02:50:49;99202.56;;;6.98;100.00
36748;BME280;22716;51.556;5.080;2024-03-02T02:53:18;99210.41;;;6.96;100.00
36748;BME280;22716;51.556;5.080;2024-03-02T02:55:47;99201.81;;;6.93;100.00
36748;BME280;22716;51.556;5.080;2024-03-02T02:58:18;99217.50;;;6.90;100.00
36748;BME280;22716;51.556;5.080;2024-03-02T03:00:46;99208.78;;;6.92;100.00
36748;BME280;22716;51.556;5.080;2024-03-02T03:03:15;99209.69;;;6.90;100.00
36748;BME280;22716;51.556;5.080;2024-03-02T03:05:43;99200.97;;;6.91;100.00
36748;BME280;22716;51.556;5.080;2024-03-02T03:08:12;99208.84;;;6.89;100.00
36748;BME280;22716;51.556;5.080;2024-03-02T03:10:41;99190.81;;;6.80;100.00
36748;BME280;22716;51.556;5.080;2024-03-02T03:13:10;99208.84;;;6.89;100.00
36748;BME280;22716;51.556;5.080;2024-03-02T03:15:41;99222.66;;;6.93;100.00
36748;BME280;22716;51.556;5.080;2024-03-02T03:18:10;99214.84;;;6.91;100.00
36748;BME280;22716;51.556;5.080;2024-03-02T03:20:38;99213.13;;;6.92;100.00
36748;BME280;22716;51.556;5.080;2024-03-02T03:23:07;99219.13;;;6.94;100.00
36748;BME280;22716;51.556;5.080;2024-03-02T03:25:40;99215.72;;;6.92;100.00
36748;BME280;22716;51.556;5.080;2024-03-02T03:28:09;99222.66;;;6.91;100.00
36748;BME280;22716;51.556;5.080;2024-03-02T03:30:41;99212.44;;;6.82;100.00
36748;BME280;22716;51.556;5.080;2024-03-02T03:33:09;99224.47;;;6.89;100.00
36748;BME280;22716;51.556;5.080;2024-03-02T03:35:38;99227.06;;;6.88;100.00
36748;BME280;22716;51.556;5.080;2024-03-02T03:38:06;99228.00;;;6.85;100.00
36748;BME280;22716;51.556;5.080;2024-03-02T03:40:35;99231.47;;;6.86;100.00
36748;BME280;22716;51.556;5.080;2024-03-02T03:43:03;99231.47;;;6.86;100.00
36748;BME280;22716;51.556;5.080;2024-03-02T03:45:32;99214.19;;;6.82;100.00
36748;BME280;22716;51.556;5.080;2024-03-02T03:48:04;99231.47;;;6.86;100.00
36748;BME280;22716;51.556;5.080;2024-03-02T03:50:33;99232.31;;;6.86;100.00
36748;BME280;22716;51.556;5.080;2024-03-02T03:53:03;99234.94;;;6.86;100.00
36748;BME280;22716;51.556;5.080;2024-03-02T03:55:32;99239.22;;;6.89;100.00
36748;BME280;22716;51.556;5.080;2024-03-02T03:58:00;99235.78;;;6.87;100.00
36748;BME280;22716;51.556;5.080;2024-03-02T04:00:29;99234.09;;;6.84;100.00
36748;BME280;22716;51.556;5.080;2024-03-02T04:02:57;99231.41;;;6.89;100.00
36748;BME280;22716;51.556;5.080;2024-03-02T04:05:28;99240.97;;;6.88;100.00
36748;BME280;22716;51.556;5.080;2024-03-02T04:07:57;99232.28;;;6.88;100.00
36748;BME280;22716;51.556;5.080;2024-03-02T04:10:26;99225.38;;;6.87;100.00
36748;BME280;22716;51.556;5.080;2024-03-02T04:12:55;99235.78;;;6.87;100.00
36748;BME280;22716;51.556;5.080;2024-03-02T04:15:24;99233.16;;;6.88;100.00
36748;BME280;22716;51.556;5.080;2024-03-02T04:17:56;99237.50;;;6.88;100.00
36748;BME280;22716;51.556;5.080;2024-03-02T04:20:24;99237.53;;;6.86;100.00
36748;BME280;22716;51.556;5.080;2024-03-02T04:22:56;99236.69;;;6.84;100.00
36748;BME280;22716;51.556;5.080;2024-03-02T04:25:24;99237.63;;;6.82;100.00
36748;BME280;22716;51.556;5.080;2024-03-02T04:27:53;99241.00;;;6.85;100.00
36748;BME280;22716;51.556;5.080;2024-03-02T04:30:22;99247.88;;;6.89;100.00
36748;BME280;22716;51.556;5.080;2024-03-02T04:32:50;99247.97;;;6.85;100.00
36748;BME280;22716;51.556;5.080;2024-03-02T04:35:19;99249.81;;;6.80;100.00
36748;BME280;22716;51.556;5.080;2024-03-02T04:37:47;99251.53;;;6.81;100.00
36748;BME280;22716;51.556;5.080;2024-03-02T04:40:19;99234.38;;;6.70;100.00
36748;BME280;22716;51.556;5.080;2024-03-02T04:42:47;99260.22;;;6.80;100.00
36748;BME280;22716;51.556;5.080;2024-03-02T04:45:16;99265.44;;;6.80;100.00
36748;BME280;22716;51.556;5.080;2024-03-02T04:47:44;99261.16;;;6.77;100.00
36748;BME280;22716;51.556;5.080;2024-03-02T04:50:13;99262.06;;;6.74;100.00
36748;BME280;22716;51.556;5.080;2024-03-02T04:52:42;99256.88;;;6.73;100.00
36748;BME280;22716;51.556;5.080;2024-03-02T04:55:10;99264.63;;;6.76;100.00
36748;BME280;22716;51.556;5.080;2024-03-02T04:57:57;99272.47;;;6.74;100.00
36748;BME280;22716;51.556;5.080;2024-03-02T05:00:26;99268.09;;;6.76;100.00
36748;BME280;22716;51.556;5.080;2024-03-02T05:02:54;99281.97;;;6.77;100.00
36748;BME280;22716;51.556;5.080;2024-03-02T05:05:23;99275.03;;;6.76;100.00
36748;BME280;22716;51.556;5.080;2024-03-02T05:07:52;99273.31;;;6.76;100.00
36748;BME280;22716;51.556;5.080;2024-03-02T05:10:21;99280.22;;;6.78;100.00
36748;BME280;22716;51.556;5.080;2024-03-02T05:12:49;99271.69;;;6.69;100.00
36748;BME280;22716;51.556;5.080;2024-03-02T05:15:27;99270.75;;;6.75;100.00
36748;BME280;22716;51.556;5.080;2024-03-02T05:17:56;99269.91;;;6.73;100.00
36748;BME280;22716;51.556;5.080;2024-03-02T05:20:25;99273.41;;;6.72;100.00
36748;BME280;22716;51.556;5.080;2024-03-02T05:22:54;99271.69;;;6.69;100.00
36748;BME280;22716;51.556;5.080;2024-03-02T05:25:22;99283.06;;;6.65;100.00
36748;BME280;22716;51.556;5.080;2024-03-02T05:27:51;99276.25;;;6.60;100.00
36748;BME280;22716;51.556;5.080;2024-03-02T05:30:19;99271.06;;;6.58;100.00
36748;BME280;22716;51.556;5.080;2024-03-02T05:32:51;99289.25;;;6.60;100.00
36748;BME280;22716;51.556;5.080;2024-03-02T05:35:19;99276.38;;;6.52;100.00
36748;BME280;22716;51.556;5.080;2024-03-02T05:37:48;99287.59;;;6.56;100.00
36748;BME280;22716;51.556;5.080;2024-03-02T05:40:16;99285.03;;;6.53;100.00
36748;BME280;22716;51.556;5.080;2024-03-02T05:42:45;99287.63;;;6.54;100.00
36748;BME280;22716;51.556;5.080;2024-03-02T05:45:13;99278.16;;;6.49;100.00
36748;BME280;22716;51.556;5.080;2024-03-02T05:47:42;99288.50;;;6.53;100.00
36748;BME280;22716;51.556;5.080;2024-03-02T05:50:13;99279.03;;;6.49;100.00
36748;BME280;22716;51.556;5.080;2024-03-02T05:52:42;99293.72;;;6.53;100.00
36748;BME280;22716;51.556;5.080;2024-03-02T05:55:10;99296.38;;;6.50;100.00
36748;BME280;22716;51.556;5.080;2024-03-02T05:57:40;99296.31;;;6.53;100.00
36748;BME280;22716;51.556;5.080;2024-03-02T06:00:24;99291.13;;;6.52;100.00
36748;BME280;22716;51.556;5.080;2024-03-02T06:02:53;99296.31;;;6.53;100.00
36748;BME280;22716;51.556;5.080;2024-03-02T06:05:24;99303.25;;;6.54;100.00
36748;BME280;22716;51.556;5.080;2024-03-02T06:07:53;99292.84;;;6.54;100.00
36748;BME280;22716;51.556;5.080;2024-03-02T06:10:21;99297.13;;;6.57;100.00
36748;BME280;22716;51.556;5.080;2024-03-02T06:12:50;99300.59;;;6.56;100.00
36748;BME280;22716;51.556;5.080;2024-03-02T06:15:18;99296.25;;;6.56;100.00
36748;BME280;22716;51.556;5.080;2024-03-02T06:17:47;99303.09;;;6.62;100.00
36748;BME280;22716;51.556;5.080;2024-03-02T06:20:15;99307.34;;;6.66;100.00
36748;BME280;22716;51.556;5.080;2024-03-02T06:22:47;99302.28;;;6.60;100.00
36748;BME280;22716;51.556;5.080;2024-03-02T06:25:15;99312.69;;;6.60;100.00
36748;BME280;22716;51.556;5.080;2024-03-02T06:27:44;99298.81;;;6.58;100.00
36748;BME280;22716;51.556;5.080;2024-03-02T06:30:13;99311.00;;;6.56;100.00
36748;BME280;22716;51.556;5.080;2024-03-02T06:32:42;99315.38;;;6.54;100.00
36748;BME280;22716;51.556;5.080;2024-03-02T06:35:10;99318.84;;;6.54;100.00
36748;BME280;22716;51.556;5.080;2024-03-02T06:37:39;99325.69;;;6.60;100.00
36748;BME280;22716;51.556;5.080;2024-03-02T06:40:11;99322.16;;;6.62;100.00
36748;BME280;22716;51.556;5.080;2024-03-02T06:42:39;99325.59;;;6.64;100.00
36748;BME280;22716;51.556;5.080;2024-03-02T06:45:08;99327.38;;;6.62;100.00
36748;BME280;22716;51.556;5.080;2024-03-02T06:47:37;99334.25;;;6.65;100.00
36748;BME280;22716;51.556;5.080;2024-03-02T06:50:05;99328.19;;;6.64;100.00
36748;BME280;22716;51.556;5.080;2024-03-02T06:52:35;99327.44;;;6.58;100.00
36748;BME280;22716;51.556;5.080;2024-03-02T06:55:05;99336.06;;;6.61;100.00
36748;BME280;22716;51.556;5.080;2024-03-02T06:57:37;99314.53;;;6.52;100.00
36748;BME280;22716;51.556;5.080;2024-03-02T07:00:06;99328.28;;;6.60;100.00
36748;BME280;22716;51.556;5.080;2024-03-02T07:02:35;99335.22;;;6.59;100.00
36748;BME280;22716;51.556;5.080;2024-03-02T07:05:06;99337.78;;;6.62;100.00
36748;BME280;22716;51.556;5.080;2024-03-02T07:07:35;99336.81;;;6.68;100.00
36748;BME280;22716;51.556;5.080;2024-03-02T07:10:05;99343.75;;;6.69;100.00
36748;BME280;22716;51.556;5.080;2024-03-02T07:12:36;99345.53;;;6.65;100.00
36748;BME280;22716;51.556;5.080;2024-03-02T07:15:06;99341.25;;;6.63;100.00
36748;BME280;22716;51.556;5.080;2024-03-02T07:17:53;99349.06;;;6.63;100.00
36748;BME280;22716;51.556;5.080;2024-03-02T07:20:21;99348.31;;;6.56;100.00
36748;BME280;22716;51.556;5.080;2024-03-02T07:22:50;99351.72;;;6.58;100.00
36748;BME280;22716;51.556;5.080;2024-03-02T07:25:19;99356.97;;;6.57;100.00
36748;BME280;22716;51.556;5.080;2024-03-02T07:27:50;99360.44;;;6.57;100.00
36748;BME280;22716;51.556;5.080;2024-03-02T07:30:19;99342.44;;;6.44;100.00
36748;BME280;22716;51.556;5.080;2024-03-02T07:32:50;99363.09;;;6.53;100.00
36748;BME280;22716;51.556;5.080;2024-03-02T07:35:18;99357.03;;;6.52;100.00
36748;BME280;22716;51.556;5.080;2024-03-02T07:37:47;99360.38;;;6.59;100.00
36748;BME280;22716;51.556;5.080;2024-03-02T07:40:16;99361.25;;;6.58;100.00
36748;BME280;22716;51.556;5.080;2024-03-02T07:42:45;99354.31;;;6.58;100.00
36748;BME280;22716;51.556;5.080;2024-03-02T07:45:16;99364.44;;;6.75;100.00
36748;BME280;22716;51.556;5.080;2024-03-02T07:47:46;99365.13;;;6.85;100.00
36748;BME280;22716;51.556;5.080;2024-03-02T07:50:15;99369.22;;;6.98;100.00
36748;BME280;22716;51.556;5.080;2024-03-02T07:52:45;99374.53;;;7.34;100.00
36748;BME280;22716;51.556;5.080;2024-03-02T07:55:13;99373.56;;;7.80;100.00
36748;BME280;22716;51.556;5.080;2024-03-02T07:57:42;99381.66;;;8.05;100.00
36748;BME280;22716;51.556;5.080;2024-03-02T08:00:12;99375.16;;;7.85;100.00
36748;BME280;22716;51.556;5.080;2024-03-02T08:02:44;99376.25;;;7.75;100.00
36748;BME280;22716;51.556;5.080;2024-03-02T08:05:13;99368.69;;;7.63;100.00
36748;BME280;22716;51.556;5.080;2024-03-02T08:07:43;99373.28;;;7.54;100.00
36748;BME280;22716;51.556;5.080;2024-03-02T08:10:13;99376.75;;;7.53;100.00
36748;BME280;22716;51.556;5.080;2024-03-02T08:12:42;99381.19;;;7.49;100.00
36748;BME280;22716;51.556;5.080;2024-03-02T08:15:11;99377.69;;;7.50;100.00
36748;BME280;22716;51.556;5.080;2024-03-02T08:17:39;99366.47;;;7.48;100.00
36748;BME280;22716;51.556;5.080;2024-03-02T08:20:16;99373.22;;;7.57;100.00
36748;BME280;22716;51.556;5.080;2024-03-02T08:22:45;99375.69;;;7.63;100.00
36748;BME280;22716;51.556;5.080;2024-03-02T08:25:14;99369.53;;;7.65;100.00
36748;BME280;22716;51.556;5.080;2024-03-02T08:27:42;99373.16;;;7.58;100.00
36748;BME280;22716;51.556;5.080;2024-03-02T08:30:12;99374.78;;;7.64;100.00
36748;BME280;22716;51.556;5.080;2024-03-02T08:32:41;99376.38;;;7.71;100.00
36748;BME280;22716;51.556;5.080;2024-03-02T08:35:10;99378.09;;;7.72;100.00
36748;BME280;22716;51.556;5.080;2024-03-02T08:37:42;99382.31;;;7.77;100.00
36748;BME280;22716;51.556;5.080;2024-03-02T08:40:11;99374.38;;;7.83;100.00
36748;BME280;22716;51.556;5.080;2024-03-02T08:42:41;99381.25;;;7.86;100.00
36748;BME280;22716;51.556;5.080;2024-03-02T08:45:10;99371.50;;;7.93;100.00
36748;BME280;22716;51.556;5.080;2024-03-02T08:47:38;99398.19;;;8.05;100.00
36748;BME280;22716;51.556;5.080;2024-03-02T08:50:08;99397.22;;;8.09;100.00
36748;BME280;22716;51.556;5.080;2024-03-02T08:52:37;99385.00;;;8.11;100.00
36748;BME280;22716;51.556;5.080;2024-03-02T08:55:08;99375.56;;;8.07;100.00
36748;BME280;22716;51.556;5.080;2024-03-02T08:57:37;99384.75;;;8.22;100.00
36748;BME280;22716;51.556;5.080;2024-03-02T09:00:08;99380.34;;;8.24;100.00
36748;BME280;22716;51.556;5.080;2024-03-02T09:02:37;99385.53;;;8.25;100.00
36748;BME280;22716;51.556;5.080;2024-03-02T09:05:07;99393.28;;;8.30;100.00
36748;BME280;22716;51.556;5.080;2024-03-02T09:07:36;99388.88;;;8.33;100.00
36748;BME280;22716;51.556;5.080;2024-03-02T09:10:09;99393.09;;;8.37;100.00
36748;BME280;22716;51.556;5.080;2024-03-02T09:12:38;99407.50;;;8.52;100.00
36748;BME280;22716;51.556;5.080;2024-03-02T09:15:08;99405.63;;;8.59;100.00
36748;BME280;22716;51.556;5.080;2024-03-02T09:17:36;99399.38;;;8.64;100.00
36748;BME280;22716;51.556;5.080;2024-03-02T09:20:07;99404.28;;;8.76;100.00
36748;BME280;22716;51.556;5.080;2024-03-02T09:22:35;99407.63;;;8.83;100.00
36748;BME280;22716;51.556;5.080;2024-03-02T09:25:04;99400.88;;;8.74;100.00
36748;BME280;22716;51.556;5.080;2024-03-02T09:27:39;99404.16;;;8.81;100.00
36748;BME280;22716;51.556;5.080;2024-03-02T09:30:08;99389.25;;;8.86;100.00
36748;BME280;22716;51.556;5.080;2024-03-02T09:32:39;99386.41;;;8.93;100.00
36748;BME280;22716;51.556;5.080;2024-03-02T09:35:08;99388.66;;;9.07;100.00
36748;BME280;22716;51.556;5.080;2024-03-02T09:37:37;99393.03;;;9.07;100.00
36748;BME280;22716;51.556;5.080;2024-03-02T09:40:07;99391.94;;;9.15;100.00
36748;BME280;22716;51.556;5.080;2024-03-02T09:42:39;99392.66;;;9.20;100.00
36748;BME280;22716;51.556;5.080;2024-03-02T09:45:09;99388.31;;;9.19;100.00
36748;BME280;22716;51.556;5.080;2024-03-02T09:47:38;99388.38;;;9.18;100.00
36748;BME280;22716;51.556;5.080;2024-03-02T09:50:07;99384.75;;;9.22;100.00
36748;BME280;22716;51.556;5.080;2024-03-02T09:52:37;99394.13;;;9.30;100.00
36748;BME280;22716;51.556;5.080;2024-03-02T09:55:07;99391.50;;;9.30;100.00
36748;BME280;22716;51.556;5.080;2024-03-02T09:57:39;99383.78;;;9.26;100.00
36748;BME280;22716;51.556;5.080;2024-03-02T10:00:09;99395.00;;;9.29;100.00
36748;BME280;22716;51.556;5.080;2024-03-02T10:02:40;99393.97;;;9.35;100.00
36748;BME280;22716;51.556;5.080;2024-03-02T10:05:10;99392.84;;;9.43;100.00
36748;BME280;22716;51.556;5.080;2024-03-02T10:07:38;99396.97;;;9.52;100.00
36748;BME280;22716;51.556;5.080;2024-03-02T10:10:14;99383.81;;;9.55;100.00
36748;BME280;22716;51.556;5.080;2024-03-02T10:12:45;99388.06;;;9.59;100.00
36748;BME280;22716;51.556;5.080;2024-03-02T10:15:23;99384.44;;;9.63;100.00
36748;BME280;22716;51.556;5.080;2024-03-02T10:17:52;99378.22;;;9.67;100.00
36748;BME280;22716;51.556;5.080;2024-03-02T10:20:22;99376.47;;;9.68;100.00
36748;BME280;22716;51.556;5.080;2024-03-02T10:22:51;99379.84;;;9.71;100.00
36748;BME280;22716;51.556;5.080;2024-03-02T10:25:30;99371.81;;;9.77;100.00
36748;BME280;22716;51.556;5.080;2024-03-02T10:28:03;99370.09;;;9.76;100.00
36748;BME280;22716;51.556;5.080;2024-03-02T10:30:34;99381.22;;;9.83;100.00
36748;BME280;22716;51.556;5.080;2024-03-02T10:33:04;99374.19;;;9.85;100.00
36748;BME280;22716;51.556;5.080;2024-03-02T10:35:34;99371.56;;;9.85;100.00
36748;BME280;22716;51.556;5.080;2024-03-02T10:38:04;99371.63;;;9.83;100.00
36748;BME280;22716;51.556;5.080;2024-03-02T10:40:34;99367.13;;;9.87;100.00
36748;BME280;22716;51.556;5.080;2024-03-02T10:43:05;99379.03;;;9.97;100.00
36748;BME280;22716;51.556;5.080;2024-03-02T10:45:35;99372.75;;;10.02;100.00
36748;BME280;22716;51.556;5.080;2024-03-02T10:48:05;99359.84;;;9.98;100.00
36748;BME280;22716;51.556;5.080;2024-03-02T10:50:34;99360.66;;;9.98;100.00
36748;BME280;22716;51.556;5.080;2024-03-02T10:53:03;99363.09;;;10.04;100.00
36748;BME280;22716;51.556;5.080;2024-03-02T10:55:32;99360.22;;;10.13;100.00
36748;BME280;22716;51.556;5.080;2024-03-02T10:58:07;99364.50;;;10.16;100.00
36748;BME280;22716;51.556;5.080;2024-03-02T11:00:38;99359.16;;;10.19;100.00
36748;BME280;22716;51.556;5.080;2024-03-02T11:03:07;99363.50;;;10.20;100.00
36748;BME280;22716;51.556;5.080;2024-03-02T11:05:39;99374.69;;;10.25;100.00
36748;BME280;22716;51.556;5.080;2024-03-02T11:08:14;99378.84;;;10.31;100.00
36748;BME280;22716;51.556;5.080;2024-03-02T11:10:49;99364.59;;;10.39;100.00
36748;BME280;22716;51.556;5.080;2024-03-02T11:13:27;99362.50;;;10.50;100.00
36748;BME280;22716;51.556;5.080;2024-03-02T11:15:59;99364.84;;;10.58;100.00
36748;BME280;22716;51.556;5.080;2024-03-02T11:18:32;99366.38;;;10.65;100.00
36748;BME280;22716;51.556;5.080;2024-03-02T11:21:02;99361.03;;;10.68;100.00
36748;BME280;22716;51.556;5.080;2024-03-02T11:23:33;99365.09;;;10.77;100.00
36748;BME280;22716;51.556;5.080;2024-03-02T11:26:17;99362.84;;;10.91;100.00
36748;BME280;22716;51.556;5.080;2024-03-02T11:28:48;99364.78;;;10.86;100.00
36748;BME280;22716;51.556;5.080;2024-03-02T11:31:16;99363.91;;;10.85;100.00
36748;BME280;22716;51.556;5.080;2024-03-02T11:33:45;99364.28;;;10.99;100.00
36748;BME280;22716;51.556;5.080;2024-03-02T11:36:15;99362.25;;;11.07;100.00
36748;BME280;22716;51.556;5.080;2024-03-02T11:38:44;99359.41;;;11.13;100.00
36748;BME280;22716;51.556;5.080;2024-03-02T11:41:15;99361.00;;;11.17;100.00
36748;BME280;22716;51.556;5.080;2024-03-02T11:43:43;99351.44;;;11.16;100.00
36748;BME280;22716;51.556;5.080;2024-03-02T11:46:15;99354.16;;;11.37;100.00
36748;BME280;22716;51.556;5.080;2024-03-02T11:48:43;99354.03;;;11.41;100.00
36748;BME280;22716;51.556;5.080;2024-03-02T11:51:12;99342.47;;;11.45;100.00
36748;BME280;22716;51.556;5.080;2024-03-02T11:53:41;99345.75;;;11.52;100.00
36748;BME280;22716;51.556;5.080;2024-03-02T11:56:12;99329.84;;;11.56;100.00
36748;BME280;22716;51.556;5.080;2024-03-02T11:58:42;99333.88;;;11.65;100.00
36748;BME280;22716;51.556;5.080;2024-03-02T12:01:16;99338.84;;;11.72;100.00
36748;BME280;22716;51.556;5.080;2024-03-02T12:03:45;99323.84;;;11.76;100.00
36748;BME280;22716;51.556;5.080;2024-03-02T12:06:15;99326.84;;;11.89;100.00
36748;BME280;22716;51.556;5.080;2024-03-02T12:08:44;99329.47;;;11.89;100.00
36748;BME280;22716;51.556;5.080;2024-03-02T12:11:13;99327.41;;;11.97;100.00
36748;BME280;22716;51.556;5.080;2024-03-02T12:13:51;99311.19;;;12.07;100.00
36748;BME280;22716;51.556;5.080;2024-03-02T12:16:25;99303.84;;;12.15;100.00
36748;BME280;22716;51.556;5.080;2024-03-02T12:18:54;99297.41;;;12.24;100.00
36748;BME280;22716;51.556;5.080;2024-03-02T12:21:23;99296.28;;;12.29;100.00
36748;BME280;22716;51.556;5.080;2024-03-02T12:23:51;99290.84;;;12.34;99.59
36748;BME280;22716;51.556;5.080;2024-03-02T12:26:22;99289.53;;;12.44;100.00
36748;BME280;22716;51.556;5.080;2024-03-02T12:28:50;99284.41;;;12.41;99.63
36748;BME280;22716;51.556;5.080;2024-03-02T12:31:20;99288.69;;;12.44;99.12
36748;BME280;22716;51.556;5.080;2024-03-02T12:33:51;99276.84;;;12.33;98.85
36748;BME280;22716;51.556;5.080;2024-03-02T12:36:20;99282.19;;;12.32;99.25
36748;BME280;22716;51.556;5.080;2024-03-02T12:38:52;99274.03;;;12.38;99.02
36748;BME280;22716;51.556;5.080;2024-03-02T12:41:21;99278.81;;;12.28;98.95
36748;BME280;22716;51.556;5.080;2024-03-02T12:43:50;99268.56;;;12.22;99.67
36748;BME280;22716;51.556;5.080;2024-03-02T12:46:19;99268.53;;;12.24;99.09
36748;BME280;22716;51.556;5.080;2024-03-02T12:48:51;99259.50;;;12.09;99.01
36748;BME280;22716;51.556;5.080;2024-03-02T12:51:20;99261.28;;;12.09;99.22
36748;BME280;22716;51.556;5.080;2024-03-02T12:53:53;99255.22;;;12.07;99.35
36748;BME280;22716;51.556;5.080;2024-03-02T12:56:22;99264.81;;;12.08;99.21
36748;BME280;22716;51.556;5.080;2024-03-02T12:58:53;99253.41;;;12.09;99.29
36748;BME280;22716;51.556;5.080;2024-03-02T13:01:22;99254.84;;;12.16;99.18
36748;BME280;22716;51.556;5.080;2024-03-02T13:03:55;99232.53;;;12.26;99.18
36748;BME280;22716;51.556;5.080;2024-03-02T13:06:25;99234.25;;;12.27;98.18
36748;BME280;22716;51.556;5.080;2024-03-02T13:08:55;99237.66;;;12.29;97.91
36748;BME280;22716;51.556;5.080;2024-03-02T13:11:24;99243.81;;;12.28;97.51
36748;BME280;22716;51.556;5.080;2024-03-02T13:13:53;99242.66;;;12.35;97.96